Nearby METAR Reports

 

KBVO - Bartlesville, Oklahoma, USA
Distance from station: WNW 10mi, 16km
Updated: Sat, 22-Jun-2024 9:53pm CDT
Clear
Clear
 Wind from S
Wind: S 6 mph , 9 km/h
Temperature: 88°F , 31°C
Heat Index: 95°F , 35°C
Dew Point: 72°F , 22°C
Humidity: 59%
Barometer: 29.87 inHg , 1011.5 hPa
Clouds: Clear
Visibility: 10 miles , 16 km
2024/06/23 02:53 KBVO 230253Z AUTO 19005KT 10SM CLR 31/22 A2987 RMK AO2 SLP102 T03060222 53001
KCFV - Coffeyville, Kansas, USA
Distance from station: NNE 31mi, 49km
Updated: Sat, 22-Jun-2024 9:52pm CDT
Clear
Clear
 Wind from S
Wind: S 12 mph , 19 km/h
Temperature: 86°F , 30°C
Heat Index: 92°F , 33°C
Dew Point: 72°F , 22°C
Humidity: 62%
Barometer: 29.84 inHg , 1010.5 hPa
Clouds: Clear
Visibility: 10 miles , 16 km
2024/06/23 02:52 KCFV 230252Z AUTO 18010KT 10SM CLR 30/22 A2984 RMK AO2 SLP095 T03000217 55002
 
KIDP - Independence, Kansas, USA
Distance from station: N 32mi, 52km
Updated: Sat, 22-Jun-2024 10:15pm CDT
Clear
Clear
 Wind from S
Wind: S 14 mph , 22 km/h
Temperature: 86°F , 30°C
Heat Index: 92°F , 33°C
Dew Point: 72°F , 22°C
Humidity: 62%
Barometer: 29.86 inHg , 1011.2 hPa
Clouds: Clear
Visibility: 10 miles , 16 km
2024/06/23 03:15 KIDP 230315Z AUTO 19012KT 10SM CLR 30/22 A2986 RMK AO2 T03000219
KGCM - Claremore, Oklahoma, USA
Distance from station: SE 35mi, 56km
Updated: Sat, 22-Jun-2024 10:15pm CDT
Clear
Clear
 Wind from S
Wind: S 8 mph , 13 km/h
Temperature: 84°F , 29°C
Heat Index: 96°F , 36°C
Dew Point: 79°F , 26°C
Humidity: 84%
Barometer: 29.89 inHg , 1012.2 hPa
Clouds: Clear
Visibility: 10 miles , 16 km
2024/06/23 03:15 KGCM 230315Z AUTO 18007KT 10SM CLR 29/26 A2989 RMK AO2 TSNO
 
KTUL - Tulsa, Oklahoma, USA
Distance from station: S 35mi, 56km
Updated: Sat, 22-Jun-2024 9:53pm CDT
Partly cloudy
Partly cloudy
 Wind from S
Wind: S 16 mph , 26 km/h
Temperature: 90°F , 32°C
Heat Index: 97°F , 36°C
Dew Point: 72°F , 22°C
Humidity: 55%
Barometer: 29.87 inHg , 1011.5 hPa
Clouds: Partly cloudy
Visibility: 10 miles , 16 km
Cloud details: Partly cloudy 25000 ft
2024/06/23 02:53 KTUL 230253Z 18014KT 10SM SCT250 32/22 A2987 RMK AO2 SLP106 T03170217 55001
KRVS - Tulsa, Oklahoma, USA
Distance from station: S 46mi, 74km
Updated: Sat, 22-Jun-2024 9:53pm CDT
Clear
Clear
 Wind from S
Wind: S 9 mph , 15 km/h
Temperature: 88°F , 31°C
Heat Index: 95°F , 35°C
Dew Point: 72°F , 22°C
Humidity: 59%
Barometer: 29.88 inHg , 1011.9 hPa
Clouds: Clear
Visibility: 10 miles , 16 km
2024/06/23 02:53 KRVS 230253Z AUTO 19008KT 10SM CLR 31/22 A2988 RMK AO2 SLP121 LAST T03060217 55000
 
KPPF - Parsons, Kansas, USA
Distance from station: NNE 48mi, 76km
Updated: Sat, 22-Jun-2024 9:52pm CDT
Partly cloudy
Partly cloudy
 Wind from S
Wind: S 6 mph , 9 km/h
Temperature: 86°F , 30°C
Heat Index: 92°F , 33°C
Dew Point: 72°F , 22°C
Humidity: 62%
Barometer: 29.87 inHg , 1011.5 hPa
Clouds: Partly cloudy
Visibility: 10 miles , 16 km
Cloud details: Partly cloudy 8500 ft
2024/06/23 02:52 KPPF 230252Z AUTO 19005KT 10SM SCT085 30/22 A2987 RMK AO2 SLP101 T03000217 55000
KGMJ - Grove, Oklahoma, USA
Distance from station: E 63mi, 101km
Updated: Sat, 22-Jun-2024 10:15pm CDT
Clear
Clear
 Wind from S
Wind: S 9 mph , 15 km/h
Temperature: 84°F , 29°C
Heat Index: 89°F , 32°C
Dew Point: 72°F , 22°C
Humidity: 66%
Barometer: 29.90 inHg , 1012.5 hPa
Clouds: Clear
Visibility: 10 miles , 16 km
2024/06/23 03:15 KGMJ 230315Z AUTO 19008KT 10SM CLR 29/22 A2990 RMK AO2 TSNO
 
KPNC - Ponca City, Oklahoma, USA
Distance from station: W 69mi, 111km
Updated: Tue, 18-Jun-2024 10:53am CDT
NOT Current
Mostly cloudy
Mostly cloudy
 Wind from S
Wind: S 15 mph , 24 km/h, Gust: 37 mph , 59 km/h
Temperature: 84°F , 29°C
Heat Index: 86°F , 30°C
Dew Point: 66°F , 19°C
Humidity: 55%
Barometer: 29.82 inHg , 1009.8 hPa
Clouds: Mostly cloudy
Visibility: 10 miles , 16 km
Cloud details: Mostly cloudy 4000 ft
2024/06/18 15:53 KPNC 181553Z AUTO 19013G32KT 10SM BKN040 29/19 A2982 RMK AO2 PK WND 19034/1522 SLP084 T02890194 PWINO $
KCNU - Chanute, Kansas, USA
Distance from station: NNE 69mi, 112km
Updated: Sat, 22-Jun-2024 9:52pm CDT
Mostly cloudy
Mostly cloudy
 Wind from SSW
Wind: SSW 13 mph , 20 km/h
Temperature: 88°F , 31°C
Heat Index: 95°F , 35°C
Dew Point: 72°F , 22°C
Humidity: 59%
Barometer: 29.85 inHg , 1010.8 hPa
Clouds: Mostly cloudy
Visibility: 10 miles , 16 km
Cloud details: Mostly cloudy 8000 ft
2024/06/23 02:52 KCNU 230252Z AUTO 20011KT 10SM BKN080 31/22 A2985 RMK AO2 SLP094 T03110217 53001